Terminal Aerodrome Forecast
Issued by NWS Twin Cities, MN

Home | Current Version | Previous Version | Graphics & Text | Print | Product List | Glossary On
Versions: 1 2 3 4 5 6 7 8 9 10 11 12 13 14 15 16 17 18 19 20 21 22 23 24 25 26 27 28 29 30 31 32
318
FTUS43 KMPX 171739
TAFMSP
TAF
KMSP 171739Z 1718/1824 32006KT P6SM OVC015
     FM172000 31005KT P6SM SCT007 OVC015
     FM180000 24004KT P6SM SCT025
     FM180300 19005KT P6SM FEW250=

USA.gov is the U.S. government's official web portal to all federal, state and local government web resources and services.